^^
Saratoga-Weather Station Historical Data
Daily Summary for April 19, 2020 Units:  English    Metric   Both
Daily Weekly Monthly Yearly Custom
  High: Low: Average:
Temperature: 41.4 °F 31.5 °F 37 °F
Dew Point: 36.1 °F 30 °F 34 °F
Humidity: 96% 79% 89%
Wind Speed: 9mph 0mph 0.6mph
Wind Gust: 11mph - -
Wind- - South
Pressure: 30.8 in 30.4 in -
Precipitation: 0.01 in    
Historical Graphs
 
 
Tabular Data for April 19, 2020
Time Temperature Dew Point Pressure Wind Wind Speed Wind Gust Humidity Rainfall Rate (Hourly) solar
00:04 32.7 °F 31.5 °F 30.4 in Calm     95% 0 in 0 W/m2
00:09 32.7 °F 31.5 °F 30.4 in Calm   1 mph 95% 0 in 0 W/m2
00:14 32.7 °F 31.5 °F 30.4 in Calm     95% 0 in 0 W/m2
00:19 32.5 °F 31.3 °F 30.4 in Calm     95% 0 in 0 W/m2
00:25 32.5 °F 31.3 °F 30.4 in Calm     95% 0 in 0 W/m2
00:30 32.4 °F 31.1 °F 30.4 in Calm     95% 0 in 0 W/m2
00:35 32.4 °F 31.1 °F 30.4 in Calm     95% 0 in 0 W/m2
00:40 32.5 °F 31.5 °F 30.4 in Calm     96% 0 in 0 W/m2
00:45 32.7 °F 31.5 °F 30.4 in Calm     95% 0 in 0 W/m2
00:50 32.5 °F 31.3 °F 30.4 in Calm     95% 0 in 0 W/m2
00:55 32.4 °F 31.1 °F 30.4 in Calm     95% 0 in 0 W/m2
01:00 32.4 °F 31.3 °F 30.4 in Calm   1 mph 96% 0 in 0 W/m2
01:05 32.4 °F 31.3 °F 30.5 in Calm     96% 0 in 0 W/m2
01:10 32.5 °F 31.5 °F 30.5 in Calm   1 mph 96% 0 in 0 W/m2
01:15 32.7 °F 31.6 °F 30.5 in Calm     96% 0 in 0 W/m2
01:20 32.9 °F 31.8 °F 30.5 in Calm     96% 0 in 0 W/m2
01:25 33.3 °F 32.2 °F 30.5 in Calm     96% 0 in 0 W/m2
01:30 33.4 °F 32.4 °F 30.5 in Calm     96% 0 in 0 W/m2
01:35 33.6 °F 32.5 °F 30.5 in Calm   1 mph 96% 0 in 0 W/m2
01:40 33.6 °F 32.5 °F 30.5 in Calm     96% 0 in 0 W/m2
01:45 33.6 °F 32.5 °F 30.5 in Calm   1 mph 96% 0 in 0 W/m2
01:50 33.6 °F 32.4 °F 30.5 in Calm   3 mph 95% 0 in 0 W/m2
01:55 34 °F 32.7 °F 30.5 in Calm     95% 0 in 0 W/m2
02:00 34.2 °F 32.9 °F 30.5 in Calm     95% 0 in 0 W/m2
02:05 34 °F 32.7 °F 30.5 in Calm     95% 0 in 0 W/m2
02:10 34.2 °F 32.9 °F 30.5 in Calm     95% 0 in 0 W/m2
02:15 34 °F 32.4 °F 30.5 in Calm   1 mph 94% 0 in 0 W/m2
02:20 34 °F 32.4 °F 30.5 in Calm     94% 0 in 0 W/m2
02:25 34.2 °F 32.5 °F 30.5 in Calm     94% 0 in 0 W/m2
02:30 34.2 °F 32.5 °F 30.5 in Calm     94% 0 in 0 W/m2
02:35 34.2 °F 32.5 °F 30.5 in Calm     94% 0 in 0 W/m2
02:40 34.2 °F 32.5 °F 30.5 in Calm     94% 0 in 0 W/m2
02:45 33.8 °F 32 °F 30.5 in Calm     93% 0 in 0 W/m2
02:50 33.4 °F 31.6 °F 30.5 in Calm     93% 0 in 0 W/m2
02:55 32.9 °F 31.1 °F 30.5 in Calm     93% 0 in 0 W/m2
03:00 32.5 °F 30.7 °F 30.5 in Calm     93% 0 in 0 W/m2
03:05 32.4 °F 30.6 °F 30.5 in Calm     93% 0 in 0 W/m2
03:10 32 °F 30.2 °F 30.5 in Calm     93% 0 in 0 W/m2
03:15 31.8 °F 30.4 °F 30.5 in Calm     94% 0 in 0 W/m2
03:20 31.8 °F 30.4 °F 30.5 in Calm     94% 0 in 0 W/m2
03:25 31.6 °F 30.2 °F 30.5 in Calm     94% 0 in 0 W/m2
03:30 31.6 °F 30.2 °F 30.5 in Calm     94% 0 in 0 W/m2
03:35 31.6 °F 30.2 °F 30.5 in Calm     94% 0 in 0 W/m2
03:40 31.6 °F 30.2 °F 30.5 in Calm     94% 0 in 0 W/m2
03:45 31.5 °F 30 °F 30.5 in Calm     94% 0 in 0 W/m2
03:50 31.5 °F 30.2 °F 30.5 in Calm     95% 0 in 0 W/m2
03:55 31.6 °F 30.4 °F 30.5 in Calm     95% 0 in 0 W/m2
04:00 31.8 °F 30.6 °F 30.5 in Calm     95% 0 in 0 W/m2
04:05 32 °F 30.7 °F 30.5 in Calm     95% 0 in 0 W/m2
04:10 32 °F 30.7 °F 30.5 in Calm     95% 0 in 0 W/m2
04:15 31.8 °F 30.6 °F 30.5 in Calm     95% 0 in 0 W/m2
04:20 31.8 °F 30.6 °F 30.5 in Calm     95% 0 in 0 W/m2
04:25 31.6 °F 30.4 °F 30.5 in Calm     95% 0 in 0 W/m2
04:31 31.6 °F 30.4 °F 30.5 in Calm     95% 0 in 0 W/m2
04:36 31.5 °F 30.2 °F 30.5 in Calm     95% 0 in 0 W/m2
04:41 32 °F 30.7 °F 30.5 in Calm     95% 0 in 0 W/m2
04:46 32.4 °F 31.1 °F 30.5 in Calm   1 mph 95% 0 in 0 W/m2
04:51 32.5 °F 31.5 °F 30.5 in Calm     96% 0 in 0 W/m2
04:56 32.4 °F 31.1 °F 30.5 in Calm     95% 0 in 0 W/m2
05:01 32.4 °F 31.1 °F 30.5 in Calm     95% 0 in 0 W/m2
05:06 32.4 °F 31.1 °F 30.5 in Calm   3 mph 95% 0 in 0 W/m2
05:11 32.7 °F 31.6 °F 30.5 in Calm     96% 0 in 0 W/m2
05:16 33.3 °F 32.2 °F 30.5 in Calm     96% 0 in 0 W/m2
05:21 33.4 °F 32.2 °F 30.5 in Calm     95% 0 in 0 W/m2
05:26 33.4 °F 32.2 °F 30.5 in Calm     95% 0 in 0 W/m2
05:31 33.6 °F 32.4 °F 30.5 in Calm     95% 0 in 0 W/m2
05:36 33.6 °F 32.4 °F 30.5 in Calm     95% 0 in 0 W/m2
05:41 33.4 °F 32.2 °F 30.5 in Calm     95% 0 in 0 W/m2
05:46 33.4 °F 32.2 °F 30.5 in Calm     95% 0 in 0 W/m2
05:51 33.6 °F 32.4 °F 30.5 in Calm     95% 0 in 0 W/m2
05:56 34 °F 32.7 °F 30.5 in Calm     95% 0 in 0 W/m2
06:01 34.3 °F 33.1 °F 30.5 in Calm     95% 0 in 0 W/m2
06:06 34.5 °F 32.9 °F 30.5 in Calm     94% 0 in 0 W/m2
06:11 34.9 °F 33.3 °F 30.5 in Calm     94% 0 in 0 W/m2
06:16 35.1 °F 33.4 °F 30.5 in Calm     94% 0 in 0 W/m2
06:21 35.2 °F 33.4 °F 30.5 in Calm     93% 0 in 0 W/m2
06:26 35.4 °F 33.6 °F 30.5 in Calm     93% 0 in 0 W/m2
06:31 35.2 °F 33.1 °F 30.5 in Calm     92% 0 in 0 W/m2
06:36 34.9 °F 32.5 °F 30.5 in Calm     91% 0 in 0 W/m2
06:41 34.2 °F 31.8 °F 30.5 in Calm     91% 0 in 0 W/m2
06:46 33.6 °F 31.5 °F 30.5 in Calm     92% 0 in 0 W/m2
06:52 33.4 °F 31.3 °F 30.5 in Calm     92% 0 in 0 W/m2
06:57 33.3 °F 31.1 °F 30.5 in Calm     92% 0 in 0 W/m2
07:02 33.1 °F 31.3 °F 30.5 in Calm     93% 0 in 0 W/m2
07:07 33.1 °F 31.3 °F 30.5 in Calm     93% 0 in 0 W/m2
07:12 33.3 °F 31.5 °F 30.5 in Calm     93% 0 in 0 W/m2
07:17 33.4 °F 31.8 °F 30.5 in Calm     94% 0 in 0 W/m2
07:22 33.8 °F 32.2 °F 30.5 in Calm     94% 0 in 0 W/m2
07:27 34 °F 32.4 °F 30.5 in Calm     94% 0 in 0 W/m2
07:32 34.2 °F 32.5 °F 30.5 in Calm     94% 0 in 0 W/m2
07:37 34.2 °F 32.5 °F 30.5 in Calm     94% 0 in 0 W/m2
07:42 34 °F 32.2 °F 30.5 in Calm     93% 0 in 0 W/m2
07:47 33.8 °F 32 °F 30.5 in Calm     93% 0 in 0 W/m2
07:52 33.8 °F 32.2 °F 30.5 in Calm     94% 0 in 0 W/m2
07:57 34 °F 32.4 °F 30.5 in Calm     94% 0 in 0 W/m2
08:02 34.2 °F 32.5 °F 30.6 in Calm     94% 0 in 0 W/m2
08:07 34.3 °F 32.7 °F 30.6 in Calm     94% 0 in 0 W/m2
08:12 34.5 °F 32.9 °F 30.6 in Calm     94% 0 in 0 W/m2
08:17 34.5 °F 32.7 °F 30.6 in Calm     93% 0 in 0 W/m2
08:22 34.5 °F 32.7 °F 30.6 in Calm   1 mph 93% 0 in 0 W/m2
08:27 34.5 °F 32.7 °F 30.6 in Calm     93% 0 in 5 W/m2
08:32 34.5 °F 32.7 °F 30.6 in Calm     93% 0 in 5 W/m2
08:37 34.7 °F 32.9 °F 30.6 in Calm     93% 0 in 9 W/m2
08:42 34.9 °F 33.1 °F 30.6 in Calm     93% 0 in 12 W/m2
08:47 34.7 °F 32.9 °F 30.6 in Calm     93% 0 in 18 W/m2
08:52 34.7 °F 32.9 °F 30.6 in Calm     93% 0 in 19 W/m2
08:57 34.9 °F 33.1 °F 30.6 in Calm     93% 0 in 14 W/m2
09:02 34.5 °F 32.7 °F 30.6 in Calm     93% 0 in 16 W/m2
09:07 34.5 °F 32.7 °F 30.6 in Calm     93% 0 in 18 W/m2
09:12 34.5 °F 32.7 °F 30.6 in Calm     93% 0 in 21 W/m2
09:17 34.5 °F 32.7 °F 30.6 in Calm     93% 0 in 19 W/m2
09:22 34.3 °F 32.5 °F 30.6 in Calm     93% 0 in 19 W/m2
09:27 34.5 °F 32.7 °F 30.6 in Calm     93% 0 in 23 W/m2
09:32 34.3 °F 32.5 °F 30.6 in Calm     93% 0 in 32 W/m2
09:37 34.3 °F 32.5 °F 30.6 in Calm     93% 0 in 33 W/m2
09:42 34.2 °F 32.4 °F 30.6 in Calm     93% 0 in 33 W/m2
09:47 34 °F 32.2 °F 30.6 in Calm     93% 0 in 33 W/m2
09:52 33.6 °F 31.8 °F 30.6 in Calm   1 mph 93% 0 in 44 W/m2
09:57 33.6 °F 31.8 °F 30.6 in Calm     93% 0 in 33 W/m2
10:02 33.6 °F 32 °F 30.6 in Calm   1 mph 94% 0 in 35 W/m2
10:07 34.3 °F 32.7 °F 30.6 in Calm     94% 0 in 35 W/m2
10:12 34.9 °F 33.3 °F 30.6 in Calm     94% 0 in 35 W/m2
10:17 35.2 °F 33.6 °F 30.6 in Calm     94% 0 in 35 W/m2
10:22 35.8 °F 34 °F 30.6 in Calm     93% 0 in 39 W/m2
10:27 36 °F 34.2 °F 30.6 in Calm   1 mph 93% 0 in 56 W/m2
10:32 36.1 °F 34.3 °F 30.6 in Calm     93% 0 in 58 W/m2
10:37 36.5 °F 34.3 °F 30.6 in Calm     92% 0.01 in 63 W/m2
10:42 36.7 °F 34.5 °F 30.6 in Calm     92% 0.01 in 65 W/m2
10:47 36.9 °F 34.7 °F 30.6 in Calm     92% 0.01 in 116 W/m2
10:52 37.2 °F 35.1 °F 30.6 in Calm   1 mph 92% 0.01 in 88 W/m2
10:57 37.4 °F 35.1 °F 30.6 in Calm     91% 0.01 in 90 W/m2
11:02 37.8 °F 35.4 °F 30.6 in Calm   1 mph 91% 0.01 in 125 W/m2
11:07 37.9 °F 35.2 °F 30.6 in Calm   1 mph 90% 0.01 in 116 W/m2
11:13 38.5 °F 35.8 °F 30.6 in Calm   1 mph 90% 0.01 in 118 W/m2
11:18 38.7 °F 35.8 °F 30.6 in WNW 0.9 mph 2 mph 89% 0.01 in 123 W/m2
11:23 38.8 °F 35.6 °F 30.6 in NW 8.1 mph 8 mph 88% 0.01 in 141 W/m2
11:28 39 °F 35.2 °F 30.6 in NNE 2 mph 6 mph 86% 0.01 in 141 W/m2
11:33 39.4 °F 35.6 °F 30.6 in Calm   8 mph 86% 0.01 in 113 W/m2
11:38 39.4 °F 35.2 °F 30.6 in Calm   7 mph 85% 0 in 56 W/m2
11:43 39.4 °F 35.2 °F 30.6 in NNW 4.9 mph 8 mph 85% 0 in 81 W/m2
11:48 39.4 °F 35.2 °F 30.6 in WNW 0.9 mph 7 mph 85% 0 in 54 W/m2
11:53 39.4 °F 35.2 °F 30.6 in Calm   5 mph 85% 0 in 51 W/m2
11:58 39.6 °F 35.1 °F 30.6 in Calm   2 mph 84% 0 in 44 W/m2
12:03 39.7 °F 35.6 °F 30.6 in Calm   1 mph 85% 0 in 42 W/m2
12:08 39.7 °F 35.2 °F 30.6 in West 0.9 mph 4 mph 84% 0 in 44 W/m2
12:13 39.9 °F 35.2 °F 30.6 in NW 4.9 mph 11 mph 83% 0 in 67 W/m2
12:18 40.5 °F 35.8 °F 30.6 in NNW 2.9 mph 8 mph 83% 0 in 98 W/m2
12:23 40.5 °F 35.4 °F 30.6 in NNW 6 mph 11 mph 82% 0 in 109 W/m2
12:28 40.6 °F 35.6 °F 30.6 in North 2 mph 10 mph 82% 0 in 105 W/m2
12:33 40.6 °F 35.2 °F 30.6 in North 4.9 mph 8 mph 81% 0 in 67 W/m2
12:38 40.5 °F 35.1 °F 30.6 in Calm   5 mph 81% 0 in 51 W/m2
12:43 40.3 °F 34.9 °F 30.6 in NNE 2 mph 3 mph 81% 0 in 53 W/m2
12:48 40.3 °F 34.9 °F 30.6 in NNW 0.9 mph 4 mph 81% 0 in 54 W/m2
12:53 40.3 °F 34.9 °F 30.6 in North 2.9 mph 7 mph 81% 0 in 69 W/m2
12:58 40.5 °F 35.1 °F 30.6 in NNW 4 mph 9 mph 81% 0 in 62 W/m2
13:03 40.6 °F 35.2 °F 30.6 in NW 4 mph 10 mph 81% 0 in 56 W/m2
13:08 40.6 °F 35.2 °F 30.6 in NW 0.9 mph 3 mph 81% 0 in 69 W/m2
13:13 40.6 °F 35.2 °F 30.6 in Calm   8 mph 81% 0 in 91 W/m2
13:18 40.8 °F 35.4 °F 30.6 in North 0.9 mph 4 mph 81% 0 in 178 W/m2
13:23 41 °F 36 °F 30.6 in Calm   3 mph 82% 0 in 139 W/m2
13:28 41.4 °F 36 °F 30.6 in North 4 mph 9 mph 81% 0 in 53 W/m2
13:33 41.2 °F 35.4 °F 30.7 in Calm   7 mph 80% 0 in 81 W/m2
13:38 41.2 °F 35.2 °F 30.6 in NNE 0.9 mph 5 mph 79% 0 in 72 W/m2
13:43 41 °F 35.2 °F 30.6 in Calm   4 mph 80% 0 in 90 W/m2
13:48 41 °F 35.2 °F 30.7 in Calm   4 mph 80% 0 in 102 W/m2
13:53 41.2 °F 35.8 °F 30.7 in NNE 2.9 mph 3 mph 81% 0 in 91 W/m2
13:58 41.2 °F 35.8 °F 30.7 in Calm   1 mph 81% 0 in 67 W/m2
14:03 41.2 °F 35.8 °F 30.7 in Calm     81% 0 in 90 W/m2
14:08 41.4 °F 36 °F 30.7 in Calm   1 mph 81% 0 in 63 W/m2
14:13 41.4 °F 36 °F 30.7 in Calm   2 mph 81% 0 in 56 W/m2
14:18 41.4 °F 36 °F 30.7 in ENE 2 mph 4 mph 81% 0 in 53 W/m2
14:23 41.4 °F 36 °F 30.7 in NE 4.9 mph 8 mph 81% 0 in 58 W/m2
14:28 41.4 °F 36 °F 30.7 in NE 0.9 mph 1 mph 81% 0 in 42 W/m2
14:33 41.2 °F 35.8 °F 30.7 in Calm   8 mph 81% 0 in 39 W/m2
14:38 41.2 °F 35.8 °F 30.7 in Calm   4 mph 81% 0 in 37 W/m2
14:43 41 °F 35.2 °F 30.7 in North 2 mph 5 mph 80% 0 in 54 W/m2
14:48 41.2 °F 35.8 °F 30.7 in Calm   3 mph 81% 0 in 60 W/m2
14:53 41.2 °F 35.8 °F 30.7 in Calm   2 mph 81% 0 in 49 W/m2
14:58 41.2 °F 35.4 °F 30.7 in Calm   3 mph 80% 0 in 56 W/m2
15:03 41.2 °F 35.8 °F 30.7 in Calm     81% 0 in 69 W/m2
15:08 41.2 °F 35.8 °F 30.7 in Calm   3 mph 81% 0 in 70 W/m2
15:13 41.4 °F 36 °F 30.7 in Calm     81% 0 in 46 W/m2
15:18 41.4 °F 36 °F 30.7 in Calm     81% 0 in 40 W/m2
15:23 41.4 °F 36 °F 30.7 in Calm     81% 0 in 67 W/m2
15:28 41.4 °F 36 °F 30.7 in Calm     81% 0 in 56 W/m2
15:33 41.4 °F 35.6 °F 30.7 in NE 0.9 mph 6 mph 80% 0 in 46 W/m2
15:38 41.4 °F 35.4 °F 30.7 in Calm     79% 0 in 42 W/m2
15:43 41.4 °F 35.4 °F 30.7 in NW 2 mph 4 mph 79% 0 in 35 W/m2
15:48 41.4 °F 35.4 °F 30.7 in Calm   3 mph 79% 0 in 42 W/m2
15:53 41.4 °F 35.4 °F 30.7 in NW 0.9 mph 3 mph 79% 0 in 46 W/m2
15:58 41.4 °F 35.4 °F 30.7 in Calm   1 mph 79% 0 in 35 W/m2
16:03 41.4 °F 35.4 °F 30.7 in NNE 0.9 mph 3 mph 79% 0 in 35 W/m2
16:08 41.2 °F 35.2 °F 30.7 in NNE 4 mph 4 mph 79% 0 in 40 W/m2
16:13 41.2 °F 35.2 °F 30.7 in Calm   3 mph 79% 0 in 30 W/m2
16:19 41.2 °F 35.2 °F 30.7 in Calm   4 mph 79% 0 in 25 W/m2
16:24 41.2 °F 35.2 °F 30.7 in Calm   5 mph 79% 0 in 21 W/m2
16:29 41.2 °F 35.2 °F 30.7 in NNE 0.9 mph 4 mph 79% 0 in 25 W/m2
16:34 41.2 °F 35.2 °F 30.7 in NNE 4.9 mph 6 mph 79% 0 in 26 W/m2
16:39 41.2 °F 35.2 °F 30.7 in North 4 mph 9 mph 79% 0 in 19 W/m2
16:44 41.2 °F 35.2 °F 30.7 in NE 2 mph 3 mph 79% 0 in 19 W/m2
16:49 41.2 °F 35.4 °F 30.7 in Calm   6 mph 80% 0 in 12 W/m2
16:54 41.2 °F 35.4 °F 30.7 in North 0.9 mph 2 mph 80% 0 in 5 W/m2
16:59 41 °F 35.2 °F 30.7 in NNE 2 mph 11 mph 80% 0 in 0 W/m2
17:04 40.8 °F 35.4 °F 30.7 in NE 6 mph 9 mph 81% 0 in 0 W/m2
17:09 40.5 °F 35.8 °F 30.7 in NNE 4 mph 4 mph 83% 0 in 0 W/m2
17:14 40.5 °F 35.8 °F 30.7 in Calm   1 mph 83% 0 in 0 W/m2
17:19 40.3 °F 35.8 °F 30.7 in Calm   6 mph 84% 0 in 0 W/m2
17:24 40.1 °F 35.6 °F 30.7 in NNE 4 mph 4 mph 84% 0 in 0 W/m2
17:29 40.1 °F 35.6 °F 30.7 in Calm   4 mph 84% 0 in 0 W/m2
17:34 39.9 °F 35.8 °F 30.7 in Calm   3 mph 85% 0 in 0 W/m2
17:39 39.9 °F 35.8 °F 30.7 in NW 4 mph 4 mph 85% 0 in 0 W/m2
17:44 39.7 °F 35.6 °F 30.7 in NNE 2 mph 2 mph 85% 0 in 0 W/m2
17:49 39.7 °F 35.6 °F 30.7 in North 2 mph 4 mph 85% 0 in 0 W/m2
17:54 39.7 °F 35.6 °F 30.7 in NNW 2 mph 9 mph 85% 0 in 0 W/m2
17:59 39.7 °F 35.6 °F 30.7 in NNE 4.9 mph 5 mph 85% 0 in 0 W/m2
18:04 39.7 °F 35.6 °F 30.7 in Calm   9 mph 85% 0 in 0 W/m2
18:09 39.7 °F 35.6 °F 30.7 in Calm   5 mph 85% 0 in 0 W/m2
18:14 39.6 °F 35.8 °F 30.7 in Calm   3 mph 86% 0 in 0 W/m2
18:19 39.6 °F 35.8 °F 30.7 in Calm   5 mph 86% 0 in 0 W/m2
18:24 39.6 °F 35.8 °F 30.7 in NNE 4.9 mph 10 mph 86% 0 in 0 W/m2
18:29 39.6 °F 35.8 °F 30.7 in North 2.9 mph 10 mph 86% 0 in 0 W/m2
18:34 39.6 °F 36 °F 30.7 in Calm   1 mph 87% 0 in 0 W/m2
18:39 39.4 °F 35.8 °F 30.7 in Calm   10 mph 87% 0 in 0 W/m2
18:44 39.4 °F 36.1 °F 30.8 in NNE 0.9 mph 4 mph 88% 0 in 0 W/m2
18:49 39.2 °F 36 °F 30.8 in Calm   8 mph 88% 0 in 0 W/m2
18:54 39 °F 36.1 °F 30.8 in Calm     89% 0 in 0 W/m2
18:59 39 °F 36.1 °F 30.8 in Calm   3 mph 89% 0 in 0 W/m2
19:04 38.8 °F 36 °F 30.8 in Calm     89% 0 in 0 W/m2
19:09 38.8 °F 36 °F 30.8 in Calm     89% 0 in 0 W/m2
19:14 38.8 °F 36 °F 30.8 in Calm   3 mph 89% 0 in 0 W/m2
19:19 38.8 °F 36 °F 30.8 in Calm   2 mph 89% 0 in 0 W/m2
19:24 38.8 °F 36 °F 30.8 in NNW 2 mph 3 mph 89% 0 in 0 W/m2
19:29 38.8 °F 36 °F 30.8 in NNW 4.9 mph 6 mph 89% 0 in 0 W/m2
19:34 39 °F 35.8 °F 30.8 in Calm     88% 0 in 0 W/m2
19:39 39 °F 35.8 °F 30.8 in NW 0.9 mph 1 mph 88% 0 in 0 W/m2
19:44 39 °F 35.4 °F 30.8 in Calm     87% 0 in 0 W/m2
19:50 39 °F 35.4 °F 30.8 in Calm     87% 0 in 0 W/m2
19:55 39 °F 35.4 °F 30.8 in Calm   2 mph 87% 0 in 0 W/m2
20:00 39 °F 35.4 °F 30.8 in Calm     87% 0 in 0 W/m2
20:05 39 °F 35.4 °F 30.8 in Calm   3 mph 87% 0 in 0 W/m2
20:10 39 °F 35.4 °F 30.8 in Calm   1 mph 87% 0 in 0 W/m2
20:15 38.8 °F 35.2 °F 30.8 in Calm   4 mph 87% 0 in 0 W/m2
20:20 38.8 °F 35.2 °F 30.8 in Calm   1 mph 87% 0 in 0 W/m2
20:25 38.8 °F 35.2 °F 30.8 in Calm   1 mph 87% 0 in 0 W/m2
20:30 38.8 °F 35.2 °F 30.8 in Calm     87% 0 in 0 W/m2
20:35 38.8 °F 35.2 °F 30.8 in Calm   1 mph 87% 0 in 0 W/m2
20:40 38.8 °F 35.2 °F 30.8 in Calm     87% 0 in 0 W/m2
20:45 38.8 °F 35.2 °F 30.8 in Calm     87% 0 in 0 W/m2
20:50 39 °F 35.8 °F 30.8 in Calm   3 mph 88% 0 in 0 W/m2
20:55 39 °F 35.4 °F 30.8 in Calm     87% 0 in 0 W/m2
21:00 39 °F 35.8 °F 30.8 in Calm   1 mph 88% 0 in 0 W/m2
21:05 39.2 °F 35.6 °F 30.8 in Calm   8 mph 87% 0 in 0 W/m2
21:10 39.2 °F 35.6 °F 30.8 in Calm     87% 0 in 0 W/m2
21:15 39 °F 35.4 °F 30.8 in Calm   2 mph 87% 0 in 0 W/m2
21:20 39.2 °F 35.6 °F 30.8 in Calm   3 mph 87% 0 in 0 W/m2
21:25 39 °F 35.4 °F 30.8 in Calm     87% 0 in 0 W/m2
21:30 39 °F 35.4 °F 30.8 in Calm   3 mph 87% 0 in 0 W/m2
21:35 39 °F 35.4 °F 30.8 in Calm   4 mph 87% 0 in 0 W/m2
21:40 39 °F 35.4 °F 30.8 in Calm   2 mph 87% 0 in 0 W/m2
21:45 38.8 °F 35.2 °F 30.8 in Calm     87% 0 in 0 W/m2
21:50 39 °F 35.8 °F 30.8 in Calm     88% 0 in 0 W/m2
21:55 39 °F 35.8 °F 30.8 in Calm   3 mph 88% 0 in 0 W/m2
22:00 39 °F 35.8 °F 30.8 in NE 0.9 mph 8 mph 88% 0 in 0 W/m2
22:05 39.2 °F 36 °F 30.8 in NNW 9 mph 9 mph 88% 0 in 0 W/m2
22:10 39.2 °F 35.6 °F 30.8 in North 2 mph 8 mph 87% 0 in 0 W/m2
22:15 39.2 °F 35.6 °F 30.8 in Calm   3 mph 87% 0 in 0 W/m2
22:20 39.2 °F 35.6 °F 30.8 in North 0.9 mph 5 mph 87% 0 in 0 W/m2
22:25 39.2 °F 36 °F 30.8 in Calm   6 mph 88% 0 in 0 W/m2
22:30 39.2 °F 36 °F 30.8 in NNW 2.9 mph 8 mph 88% 0 in 0 W/m2
22:35 39.2 °F 36 °F 30.8 in Calm   5 mph 88% 0 in 0 W/m2
22:40 39.2 °F 36 °F 30.8 in NW 2.9 mph 8 mph 88% 0 in 0 W/m2
22:45 39.2 °F 35.6 °F 30.8 in Calm   6 mph 87% 0 in 0 W/m2
22:51 39.2 °F 36 °F 30.8 in Calm   1 mph 88% 0 in 0 W/m2
22:56 39.2 °F 36 °F 30.8 in NNW 2.9 mph 7 mph 88% 0 in 0 W/m2
23:01 39.2 °F 35.6 °F 30.8 in North 2.9 mph 5 mph 87% 0 in 0 W/m2
23:06 39.2 °F 36 °F 30.8 in Calm   6 mph 88% 0 in 0 W/m2
23:11 39.2 °F 36 °F 30.8 in Calm   1 mph 88% 0 in 0 W/m2
23:16 39.2 °F 36 °F 30.8 in Calm   1 mph 88% 0 in 0 W/m2
23:21 39 °F 35.8 °F 30.8 in Calm   8 mph 88% 0 in 0 W/m2
23:26 39 °F 35.8 °F 30.8 in Calm   2 mph 88% 0 in 0 W/m2
23:31 39 °F 35.8 °F 30.8 in Calm   6 mph 88% 0 in 0 W/m2
23:36 39 °F 35.8 °F 30.8 in Calm   1 mph 88% 0 in 0 W/m2
23:41 39 °F 35.8 °F 30.8 in Calm   1 mph 88% 0 in 0 W/m2
23:46 39 °F 35.8 °F 30.8 in Calm   6 mph 88% 0 in 0 W/m2
23:51 39 °F 35.8 °F 30.8 in Calm   8 mph 88% 0 in 0 W/m2
23:56 39 °F 35.8 °F 30.8 in Calm   3 mph 88% 0 in 0 W/m2
Juneau County Weather
Compliments of Weather Underground - 4 mb